createdAt,value
2023-02-16T00:00:22.923Z,23.30
2023-02-16T00:02:50.427Z,17.85
2023-02-16T00:05:28.012Z,17.10
2023-02-16T00:07:56.145Z,16.58
2023-02-16T00:10:23.630Z,17.92
2023-02-16T00:13:09.270Z,17.52
2023-02-16T00:15:36.332Z,19.88
2023-02-16T00:18:06.017Z,22.75
2023-02-16T00:20:32.894Z,24.45
2023-02-16T00:22:59.778Z,28.27
2023-02-16T00:25:26.825Z,26.52
2023-02-16T00:27:53.789Z,29.38
2023-02-16T00:30:22.634Z,28.95
2023-02-16T00:32:50.590Z,27.17
2023-02-16T00:35:19.627Z,26.90
2023-02-16T00:37:47.517Z,35.63
2023-02-16T00:40:16.481Z,49.88
2023-02-16T00:42:45.545Z,26.52
2023-02-16T00:45:20.509Z,26.65
2023-02-16T00:47:52.710Z,26.13
2023-02-16T00:50:24.754Z,24.98
2023-02-16T00:52:51.973Z,25.83
2023-02-16T00:55:24.569Z,25.25
2023-02-16T00:57:56.090Z,24.33
2023-02-16T01:00:27.123Z,24.17
2023-02-16T01:02:57.511Z,24.15
2023-02-16T01:05:25.221Z,24.40
2023-02-16T01:08:10.752Z,86.95
2023-02-16T01:10:57.594Z,114.45
2023-02-16T01:13:27.864Z,30.33
2023-02-16T01:15:55.724Z,21.67
2023-02-16T01:18:22.934Z,21.88
2023-02-16T01:20:51.625Z,22.48
2023-02-16T01:23:18.451Z,23.45
2023-02-16T01:25:45.508Z,22.50
2023-02-16T01:28:22.710Z,22.38
2023-02-16T01:30:50.994Z,25.58
2023-02-16T01:33:18.679Z,26.25
2023-02-16T01:35:45.908Z,24.35
2023-02-16T01:38:27.891Z,22.58
2023-02-16T01:41:23.816Z,24.08
2023-02-16T01:43:56.564Z,24.70
2023-02-16T01:46:43.442Z,26.60
2023-02-16T01:49:21.393Z,26.27
2023-02-16T01:52:13.317Z,24.73
2023-02-16T01:54:49.295Z,26.50
2023-02-16T01:57:28.330Z,54.30
2023-02-16T01:59:55.148Z,77.00
2023-02-16T02:02:26.198Z,32.63
2023-02-16T02:05:39.653Z,28.05
2023-02-16T02:08:25.714Z,27.80
2023-02-16T02:11:26.202Z,27.27
2023-02-16T02:14:14.808Z,27.30
2023-02-16T02:16:51.940Z,25.00
2023-02-16T02:19:18.851Z,24.95
2023-02-16T02:22:26.808Z,25.90
2023-02-16T02:25:13.466Z,25.02
2023-02-16T02:28:06.255Z,25.65
2023-02-16T02:30:57.647Z,26.73
2023-02-16T02:34:11.139Z,26.92
2023-02-16T02:37:05.553Z,30.58
2023-02-16T02:40:02.329Z,29.95
2023-02-16T02:42:38.190Z,28.73
2023-02-16T02:45:12.586Z,31.58
2023-02-16T02:47:43.061Z,27.23
2023-02-16T02:50:28.327Z,28.00
2023-02-16T02:53:02.452Z,25.17
2023-02-16T02:55:52.363Z,26.33
2023-02-16T02:58:40.562Z,21.20
2023-02-16T03:01:09.041Z,21.42
2023-02-16T03:03:43.605Z,22.77
2023-02-16T03:06:27.043Z,89.80
2023-02-16T03:09:00.675Z,20.45
2023-02-16T03:11:48.336Z,21.07
2023-02-16T03:28:05.932Z,20.38
2023-02-16T03:30:33.077Z,21.98
2023-02-16T03:33:00.167Z,22.40
2023-02-16T03:35:27.246Z,23.67
2023-02-16T03:37:54.102Z,26.02
2023-02-16T03:40:31.901Z,29.45
2023-02-16T03:43:06.968Z,30.25
2023-02-16T03:45:37.321Z,26.15
2023-02-16T03:48:04.822Z,28.10
2023-02-16T03:50:31.741Z,27.63
2023-02-16T03:53:06.983Z,28.77
2023-02-16T03:55:35.297Z,28.48
2023-02-16T03:58:02.871Z,26.33
2023-02-16T04:00:30.557Z,28.27
2023-02-16T04:02:57.383Z,28.08
2023-02-16T04:05:24.922Z,29.48
2023-02-16T04:07:51.935Z,27.25
2023-02-16T04:10:19.440Z,27.58
2023-02-16T04:12:46.476Z,28.35
2023-02-16T04:15:16.928Z,28.05
2023-02-16T04:17:44.184Z,30.08
2023-02-16T04:20:14.366Z,31.45
2023-02-16T04:22:42.299Z,27.52
2023-02-16T04:25:09.610Z,27.77
2023-02-16T04:27:37.719Z,28.95
2023-02-16T04:30:07.091Z,25.55
2023-02-16T04:32:33.922Z,23.48
2023-02-16T04:35:00.797Z,26.02
2023-02-16T04:37:27.735Z,26.50
2023-02-16T04:39:54.665Z,26.80
2023-02-16T04:42:21.528Z,30.27
2023-02-16T04:44:48.483Z,31.25
2023-02-16T04:47:15.581Z,32.95
2023-02-16T04:49:42.459Z,37.40
2023-02-16T04:52:10.001Z,35.53
2023-02-16T04:54:36.922Z,35.53
2023-02-16T04:57:03.942Z,39.78
2023-02-16T04:59:31.412Z,39.80
2023-02-16T05:01:58.697Z,40.92
2023-02-16T05:04:25.777Z,44.58
2023-02-16T05:06:52.677Z,43.60
2023-02-16T05:09:19.510Z,41.92
2023-02-16T05:12:05.110Z,48.40
2023-02-16T05:14:44.999Z,42.33
2023-02-16T05:17:14.122Z,42.80
2023-02-16T05:19:42.768Z,42.30
2023-02-16T05:22:10.378Z,37.85
2023-02-16T05:24:37.586Z,40.25
2023-02-16T05:27:07.063Z,37.80
2023-02-16T05:29:34.439Z,34.78
2023-02-16T05:32:04.493Z,34.58
2023-02-16T05:34:32.003Z,37.45
2023-02-16T05:36:58.986Z,34.47
2023-02-16T05:39:25.980Z,34.70
2023-02-16T05:41:52.859Z,33.08
2023-02-16T05:44:19.765Z,33.78
2023-02-16T05:46:46.672Z,29.15
2023-02-16T05:49:15.214Z,29.90
2023-02-16T05:51:42.474Z,27.25
2023-02-16T05:54:10.948Z,27.23
2023-02-16T05:56:37.793Z,27.83
2023-02-16T05:59:04.681Z,28.08
2023-02-16T06:01:31.602Z,27.60
2023-02-16T06:03:58.428Z,28.23
2023-02-16T06:06:25.390Z,27.75
2023-02-16T06:08:52.322Z,29.10
2023-02-16T06:11:37.493Z,26.75
2023-02-16T06:14:08.627Z,31.92
2023-02-16T06:16:37.124Z,33.67
2023-02-16T06:19:05.075Z,30.63
2023-02-16T06:21:32.810Z,31.50
2023-02-16T06:23:59.850Z,32.97
2023-02-16T06:26:27.261Z,36.28
2023-02-16T06:28:54.858Z,33.55
2023-02-16T06:31:22.646Z,34.35
2023-02-16T06:33:49.817Z,34.40
2023-02-16T06:36:17.602Z,36.97
2023-02-16T06:38:44.586Z,34.80
2023-02-16T06:41:11.816Z,37.28
2023-02-16T06:43:38.723Z,40.38
2023-02-16T06:46:05.614Z,39.78
2023-02-16T06:48:32.583Z,39.40
2023-02-16T06:50:59.415Z,40.28
2023-02-16T06:53:26.341Z,39.72
2023-02-16T06:55:53.177Z,39.30
2023-02-16T06:58:20.040Z,36.80
2023-02-16T07:00:47.165Z,37.88
2023-02-16T07:03:14.274Z,37.67
2023-02-16T07:05:41.278Z,39.25
2023-02-16T07:08:08.527Z,39.50
2023-02-16T07:10:49.009Z,44.03
2023-02-16T07:13:16.760Z,40.22
2023-02-16T07:15:43.652Z,38.80
2023-02-16T07:18:10.592Z,38.85
2023-02-16T07:20:38.049Z,37.83
2023-02-16T07:23:05.199Z,38.30
2023-02-16T07:25:32.282Z,37.58
2023-02-16T07:27:59.212Z,37.25
2023-02-16T07:30:26.235Z,38.70
2023-02-16T07:32:53.164Z,37.30
2023-02-16T07:35:20.221Z,39.75
2023-02-16T07:37:47.113Z,38.10
2023-02-16T07:40:14.012Z,38.53
2023-02-16T07:42:40.934Z,38.75
2023-02-16T07:45:08.253Z,39.35
2023-02-16T07:47:35.156Z,38.30
2023-02-16T07:50:02.113Z,37.65
2023-02-16T07:52:31.327Z,38.30
2023-02-16T07:54:59.266Z,38.33
2023-02-16T07:57:27.991Z,37.72
2023-02-16T07:59:55.819Z,35.30
2023-02-16T08:02:23.812Z,36.90
2023-02-16T08:04:52.979Z,36.72
2023-02-16T08:07:21.062Z,36.17
2023-02-16T08:09:47.999Z,36.65
2023-02-16T08:12:16.077Z,33.25
2023-02-16T08:14:43.501Z,34.65
2023-02-16T08:17:10.651Z,33.80
2023-02-16T08:19:37.671Z,33.70
2023-02-16T08:22:05.328Z,33.13
2023-02-16T08:24:34.190Z,32.25
2023-02-16T08:27:04.463Z,30.05
2023-02-16T08:29:32.432Z,31.17
2023-02-16T08:32:00.110Z,30.58
2023-02-16T08:34:27.646Z,30.40
2023-02-16T08:36:56.855Z,30.42
2023-02-16T08:39:28.266Z,27.83
2023-02-16T08:41:55.660Z,28.15
2023-02-16T08:44:24.342Z,28.95
2023-02-16T08:46:53.298Z,27.85
2023-02-16T08:49:22.148Z,27.52
2023-02-16T08:51:56.062Z,27.77
2023-02-16T08:54:30.008Z,28.75
2023-02-16T08:56:59.144Z,26.23
2023-02-16T08:59:28.637Z,28.90
2023-02-16T09:01:58.118Z,28.08
2023-02-16T09:04:26.388Z,28.52
2023-02-16T09:06:53.597Z,30.95
2023-02-16T09:09:20.731Z,29.55
2023-02-16T09:11:48.741Z,30.52
2023-02-16T09:14:18.819Z,30.92
2023-02-16T09:16:46.725Z,27.83
2023-02-16T09:19:20.655Z,30.40
2023-02-16T09:21:48.651Z,29.38
2023-02-16T09:24:16.487Z,29.35
2023-02-16T09:26:44.850Z,27.77
2023-02-16T09:29:13.038Z,25.63
2023-02-16T09:31:40.647Z,25.58
2023-02-16T09:34:09.509Z,23.73
2023-02-16T09:36:38.085Z,25.52
2023-02-16T09:39:05.809Z,25.08
2023-02-16T09:41:41.754Z,24.08
2023-02-16T09:44:17.631Z,22.98
2023-02-16T09:46:44.901Z,23.30
2023-02-16T09:49:45.167Z,22.48
2023-02-16T09:52:24.140Z,22.85
2023-02-16T09:54:56.026Z,22.40
2023-02-16T09:57:33.705Z,21.63
2023-02-16T10:00:45.295Z,21.90
2023-02-16T10:03:32.252Z,22.88
2023-02-16T10:06:24.287Z,21.27
2023-02-16T10:09:00.496Z,21.42
2023-02-16T10:11:45.735Z,21.35
2023-02-16T10:14:34.727Z,25.02
2023-02-16T10:17:15.226Z,22.42
2023-02-16T10:19:57.178Z,22.83
2023-02-16T10:22:33.549Z,23.20
2023-02-16T10:25:15.153Z,22.77
2023-02-16T10:27:46.013Z,22.52
2023-02-16T10:30:18.896Z,23.63
2023-02-16T10:32:57.967Z,25.90
2023-02-16T10:35:41.000Z,23.92
2023-02-16T10:38:14.360Z,24.45
2023-02-16T10:40:44.262Z,24.48
2023-02-16T10:43:18.324Z,23.45
2023-02-16T10:45:55.410Z,24.92
2023-02-16T10:48:23.672Z,26.60
2023-02-16T10:51:06.764Z,25.88
2023-02-16T10:53:45.703Z,25.17
2023-02-16T10:56:31.394Z,27.05
2023-02-16T10:58:59.421Z,24.63
2023-02-16T11:01:39.670Z,23.38
2023-02-16T11:04:06.807Z,24.23
2023-02-16T11:06:36.489Z,27.25
2023-02-16T11:09:04.593Z,26.48
2023-02-16T11:11:38.704Z,25.50
2023-02-16T11:14:19.736Z,25.98
2023-02-16T11:16:47.254Z,24.98
2023-02-16T11:19:25.008Z,25.40
2023-02-16T11:21:58.870Z,24.65
2023-02-16T11:24:27.907Z,23.60
2023-02-16T11:27:04.083Z,24.95
2023-02-16T11:29:31.711Z,25.35
2023-02-16T11:31:59.396Z,25.48
2023-02-16T11:34:40.125Z,27.80
2023-02-16T11:37:28.378Z,24.05
2023-02-16T11:39:59.297Z,22.88
2023-02-16T11:42:44.068Z,23.08
2023-02-16T11:45:29.681Z,26.42
2023-02-16T11:48:13.876Z,22.20
2023-02-16T11:50:57.173Z,23.88
2023-02-16T11:53:27.883Z,21.77
2023-02-16T11:56:19.218Z,25.02
2023-02-16T11:59:04.268Z,24.67
2023-02-16T12:02:02.737Z,24.40
2023-02-16T12:05:07.613Z,27.48
2023-02-16T12:08:09.974Z,28.67
2023-02-16T12:10:54.195Z,27.92
2023-02-16T12:13:36.517Z,27.90
2023-02-16T12:16:22.005Z,27.67
2023-02-16T12:19:07.679Z,27.08
2023-02-16T12:21:45.505Z,28.58
2023-02-16T12:24:42.228Z,24.27
2023-02-16T12:27:39.779Z,25.10
2023-02-16T12:30:12.482Z,22.95
2023-02-16T12:32:55.442Z,20.05
2023-02-16T12:35:38.404Z,18.77
2023-02-16T12:38:14.772Z,20.63
2023-02-16T12:41:32.872Z,19.10
2023-02-16T12:44:18.003Z,20.15
2023-02-16T12:47:08.337Z,21.08
2023-02-16T12:49:52.445Z,18.92
2023-02-16T12:52:35.573Z,19.45
2023-02-16T12:55:23.560Z,22.27
2023-02-16T12:58:08.629Z,19.58
2023-02-16T13:01:19.039Z,19.88
2023-02-16T13:03:50.872Z,20.83
2023-02-16T13:06:40.351Z,18.60
2023-02-16T13:09:25.980Z,19.45
2023-02-16T13:11:58.056Z,20.55
2023-02-16T13:14:32.845Z,18.42
2023-02-16T13:17:03.841Z,19.65
2023-02-16T13:19:31.054Z,20.17
2023-02-16T13:22:29.716Z,19.95
2023-02-16T13:25:04.405Z,19.15
2023-02-16T13:27:41.844Z,20.83
2023-02-16T13:30:20.979Z,19.63
2023-02-16T13:33:07.170Z,21.17
2023-02-16T13:35:45.597Z,19.33
2023-02-16T13:38:31.106Z,19.83
2023-02-16T13:41:24.444Z,20.15
2023-02-16T13:43:57.219Z,19.90
2023-02-16T13:46:32.343Z,21.80
2023-02-16T13:49:02.248Z,20.90
2023-02-16T13:51:44.332Z,19.90
2023-02-16T13:54:28.791Z,19.95
2023-02-16T13:56:56.100Z,21.02
2023-02-16T13:59:22.901Z,19.02
2023-02-16T14:01:51.533Z,18.65
2023-02-16T14:04:27.399Z,21.33
2023-02-16T14:07:03.400Z,18.73
2023-02-16T14:09:31.685Z,20.30
2023-02-16T14:11:59.562Z,18.48
2023-02-16T14:14:27.033Z,18.40
2023-02-16T14:16:54.717Z,19.17
2023-02-16T14:19:26.335Z,18.67
2023-02-16T14:21:53.829Z,18.05
2023-02-16T14:24:32.783Z,20.23
2023-02-16T14:27:05.649Z,20.02
2023-02-16T14:29:38.590Z,21.13
2023-02-16T14:32:46.016Z,19.92
2023-02-16T14:35:24.749Z,18.05
2023-02-16T14:37:58.644Z,18.83
2023-02-16T14:40:34.672Z,20.40
2023-02-16T14:43:12.817Z,21.40
2023-02-16T14:45:59.906Z,19.90
2023-02-16T14:48:59.154Z,18.70
2023-02-16T14:52:04.381Z,20.17
2023-02-16T14:54:58.939Z,16.50
2023-02-16T14:57:37.884Z,17.30
2023-02-16T15:00:19.746Z,17.67
2023-02-16T15:03:15.952Z,18.90
2023-02-16T15:05:43.447Z,17.73
2023-02-16T15:08:19.400Z,18.02
2023-02-16T15:10:46.695Z,18.85
2023-02-16T15:13:34.121Z,17.80
2023-02-16T15:30:20.646Z,18.70
2023-02-16T15:32:53.485Z,18.58
2023-02-16T15:35:37.935Z,18.17
2023-02-16T15:38:26.672Z,20.30
2023-02-16T15:40:55.556Z,19.33
2023-02-16T15:43:44.266Z,21.48
2023-02-16T15:46:39.791Z,20.58
2023-02-16T15:49:27.532Z,19.52
2023-02-16T15:51:56.983Z,21.30
2023-02-16T15:54:30.814Z,20.33
2023-02-16T15:57:04.220Z,20.63
2023-02-16T15:59:47.703Z,18.30
2023-02-16T16:02:37.460Z,22.58
2023-02-16T16:05:09.415Z,20.25
2023-02-16T16:07:41.788Z,21.67
2023-02-16T16:10:29.473Z,19.38
2023-02-16T16:13:07.552Z,20.73
2023-02-16T16:15:39.553Z,18.67
2023-02-16T16:18:06.808Z,18.13
2023-02-16T16:20:39.247Z,21.35
2023-02-16T16:23:07.407Z,19.70
2023-02-16T16:25:34.205Z,18.95
2023-02-16T16:28:02.496Z,17.83
2023-02-16T16:30:31.810Z,19.67
2023-02-16T16:33:07.780Z,22.25
2023-02-16T16:35:42.885Z,21.15
2023-02-16T16:38:28.476Z,23.77
2023-02-16T16:40:58.754Z,21.40
2023-02-16T16:43:30.276Z,22.75
2023-02-16T16:46:28.023Z,24.80
2023-02-16T16:49:00.152Z,20.70
2023-02-16T16:51:27.792Z,20.52
2023-02-16T16:54:05.613Z,19.13
2023-02-16T16:56:37.611Z,17.63
2023-02-16T16:59:05.263Z,17.85
2023-02-16T17:01:32.743Z,20.20
2023-02-16T17:04:00.315Z,18.08
2023-02-16T17:06:27.399Z,19.40
2023-02-16T17:08:55.389Z,18.77
2023-02-16T17:11:28.484Z,18.17
2023-02-16T17:13:57.676Z,17.15
2023-02-16T17:16:38.227Z,16.30
2023-02-16T17:19:05.342Z,21.30
2023-02-16T17:21:32.437Z,17.73
2023-02-16T17:23:59.295Z,17.73
2023-02-16T17:26:26.213Z,23.17
2023-02-16T17:28:53.003Z,17.23
2023-02-16T17:31:20.033Z,17.52
2023-02-16T17:33:46.924Z,17.05
2023-02-16T17:36:16.248Z,19.83
2023-02-16T17:38:44.353Z,21.35
2023-02-16T17:41:19.940Z,19.25
2023-02-16T17:43:46.852Z,27.33
2023-02-16T17:46:14.997Z,27.42
2023-02-16T17:48:42.218Z,21.90
2023-02-16T17:51:18.067Z,18.25
2023-02-16T17:53:45.329Z,17.58
2023-02-16T17:56:13.884Z,19.80
2023-02-16T17:58:41.362Z,18.65
2023-02-16T18:01:13.051Z,19.08
2023-02-16T18:03:40.140Z,20.30
2023-02-16T18:06:07.135Z,20.88
2023-02-16T18:08:34.311Z,19.50
2023-02-16T18:11:04.179Z,20.42
2023-02-16T18:13:31.876Z,23.50
2023-02-16T18:16:01.033Z,23.10
2023-02-16T18:18:27.949Z,22.60
2023-02-16T18:20:54.940Z,19.58
2023-02-16T18:23:21.893Z,22.10
2023-02-16T18:25:48.830Z,22.65
2023-02-16T18:28:21.263Z,23.67
2023-02-16T18:30:49.345Z,22.58
2023-02-16T18:33:23.378Z,22.65
2023-02-16T18:35:56.057Z,23.77
2023-02-16T18:38:23.853Z,24.23
2023-02-16T18:40:52.736Z,24.70
2023-02-16T18:43:20.074Z,24.98
2023-02-16T18:45:47.233Z,24.00
2023-02-16T18:48:14.065Z,24.45
2023-02-16T18:50:40.987Z,23.80
2023-02-16T18:53:07.885Z,23.75
2023-02-16T18:55:35.241Z,23.50
2023-02-16T18:58:07.739Z,21.33
2023-02-16T19:00:35.589Z,21.20
2023-02-16T19:03:02.956Z,23.30
2023-02-16T19:05:30.182Z,22.25
2023-02-16T19:07:57.170Z,22.52
2023-02-16T19:10:25.143Z,20.55
2023-02-16T19:12:52.238Z,19.40
2023-02-16T19:15:19.317Z,21.70
2023-02-16T19:17:46.179Z,20.05
2023-02-16T19:20:18.066Z,21.05
2023-02-16T19:22:46.874Z,26.77
2023-02-16T19:25:14.718Z,24.60
2023-02-16T19:27:42.079Z,22.83
2023-02-16T19:30:10.462Z,27.23
2023-02-16T19:32:41.055Z,24.02
2023-02-16T19:35:11.740Z,24.95
2023-02-16T19:37:39.128Z,21.67
2023-02-16T19:40:09.576Z,23.23
2023-02-16T19:42:37.470Z,21.65
2023-02-16T19:45:04.996Z,22.50
2023-02-16T19:47:31.889Z,21.60
2023-02-16T19:49:58.784Z,20.80
2023-02-16T19:52:25.625Z,21.88
2023-02-16T19:54:52.487Z,21.40
2023-02-16T19:57:19.544Z,18.00
2023-02-16T19:59:46.388Z,20.13
2023-02-16T20:02:15.563Z,21.38
2023-02-16T20:04:44.026Z,18.33
2023-02-16T20:07:10.949Z,19.52
2023-02-16T20:09:38.014Z,18.50
2023-02-16T20:12:05.689Z,17.35
2023-02-16T20:14:32.699Z,18.73
2023-02-16T20:16:59.662Z,16.98
2023-02-16T20:19:26.538Z,18.85
2023-02-16T20:21:53.375Z,17.40
2023-02-16T20:24:20.644Z,18.77
2023-02-16T20:26:49.226Z,14.88
2023-02-16T20:29:20.905Z,19.77
2023-02-16T20:31:57.322Z,19.13
2023-02-16T20:34:26.428Z,21.45
2023-02-16T20:36:54.312Z,18.88
2023-02-16T20:39:21.498Z,19.80
2023-02-16T20:41:48.404Z,19.95
2023-02-16T20:44:15.628Z,19.55
2023-02-16T20:46:43.111Z,18.73
2023-02-16T20:49:10.436Z,18.48
2023-02-16T20:51:38.151Z,18.40
2023-02-16T20:54:05.905Z,20.45
2023-02-16T20:56:33.121Z,18.90
2023-02-16T20:59:00.046Z,20.00
2023-02-16T21:01:46.897Z,19.83
2023-02-16T21:04:15.953Z,20.52
2023-02-16T21:06:43.235Z,21.05
2023-02-16T21:09:11.150Z,21.67
2023-02-16T21:11:39.416Z,20.15
2023-02-16T21:14:08.314Z,19.35
2023-02-16T21:16:35.345Z,18.13
2023-02-16T21:19:07.248Z,19.65
2023-02-16T21:21:38.770Z,19.58
2023-02-16T21:24:05.813Z,19.90
2023-02-16T21:26:32.850Z,16.77
2023-02-16T21:29:00.016Z,16.30
2023-02-16T21:31:27.038Z,17.52
2023-02-16T21:33:54.109Z,16.90
2023-02-16T21:36:23.461Z,17.17
2023-02-16T21:38:50.547Z,19.95
2023-02-16T21:41:27.512Z,17.00
2023-02-16T21:44:11.114Z,16.35
2023-02-16T21:46:39.844Z,17.33
2023-02-16T21:49:09.689Z,18.45
2023-02-16T21:51:45.773Z,18.08
2023-02-16T21:54:18.074Z,18.67
2023-02-16T21:56:54.757Z,18.63
2023-02-16T21:59:23.671Z,19.52
2023-02-16T22:01:52.677Z,18.13
2023-02-16T22:04:23.679Z,19.63
2023-02-16T22:06:51.943Z,20.10
2023-02-16T22:09:23.334Z,19.73
2023-02-16T22:11:51.949Z,19.50
2023-02-16T22:14:20.088Z,19.08
2023-02-16T22:16:48.020Z,18.42
2023-02-16T22:19:19.944Z,18.80
2023-02-16T22:21:48.656Z,18.00
2023-02-16T22:24:20.256Z,17.25
2023-02-16T22:26:49.299Z,16.92
2023-02-16T22:29:16.877Z,20.48
2023-02-16T22:31:48.064Z,19.60
2023-02-16T22:34:17.502Z,18.35
2023-02-16T22:36:44.356Z,18.83
2023-02-16T22:39:13.244Z,19.38
2023-02-16T22:41:40.156Z,18.02
2023-02-16T22:44:07.477Z,20.50
2023-02-16T22:46:34.480Z,18.90
2023-02-16T22:49:02.150Z,18.73
2023-02-16T22:51:30.959Z,19.15
2023-02-16T22:54:00.697Z,20.88
2023-02-16T22:56:30.005Z,19.35
2023-02-16T22:58:58.293Z,19.90
2023-02-16T23:01:27.417Z,18.60
2023-02-16T23:03:58.811Z,18.77
2023-02-16T23:06:27.153Z,18.75
2023-02-16T23:08:57.557Z,19.67
2023-02-16T23:11:25.482Z,17.48
2023-02-16T23:13:52.384Z,18.58
2023-02-16T23:16:22.880Z,18.02
2023-02-16T23:18:50.313Z,19.35
2023-02-16T23:21:28.093Z,18.10
2023-02-16T23:23:55.686Z,17.35
2023-02-16T23:26:24.924Z,19.33
2023-02-16T23:28:57.273Z,18.20
2023-02-16T23:31:24.244Z,18.05
2023-02-16T23:33:51.534Z,19.58
2023-02-16T23:36:18.458Z,19.17
2023-02-16T23:38:45.298Z,19.10
2023-02-16T23:41:13.812Z,19.52
2023-02-16T23:43:40.799Z,19.85
2023-02-16T23:46:08.546Z,19.60
2023-02-16T23:48:35.899Z,22.60
2023-02-16T23:51:02.756Z,20.95
2023-02-16T23:53:29.718Z,22.92
2023-02-16T23:56:02.165Z,22.15
2023-02-16T23:58:31.357Z,22.25
